Time;durP1;ratioP1;P1;durP2;ratioP2;P2;SDS_P1;SDS_P2;PMS_P1;PMS_P2;Temp;Humidity;BMP_temperature;BMP_pressure;BME280_temperature;BME280_humidity;BME280_pressure;Samples;Min_cycle;Max_cycle;Signal;HPM_P1;HPM_P2
2023/03/07 00:00:15;;;;;;;13.38;8.40;;;5.10;99.90;;;;;;5019085;28;20054;-80
2023/03/07 00:02:41;;;;;;;15.80;9.32;;;5.10;99.90;;;;;;5009298;28;20528;-80
2023/03/07 00:05:08;;;;;;;13.65;8.98;;;5.10;99.90;;;;;;5021487;28;20053;-80
2023/03/07 00:07:35;;;;;;;13.90;8.77;;;5.00;99.90;;;;;;5022603;28;20049;-82
2023/03/07 00:10:02;;;;;;;18.27;9.63;;;5.10;99.90;;;;;;5017780;28;20439;-80
2023/03/07 00:12:29;;;;;;;15.57;9.15;;;5.00;99.90;;;;;;5035232;28;20101;-81
2023/03/07 00:14:56;;;;;;;15.27;8.32;;;5.00;99.90;;;;;;5019940;28;20064;-80
2023/03/07 00:17:22;;;;;;;15.98;9.40;;;5.00;99.90;;;;;;5024902;28;20142;-80
2023/03/07 00:19:49;;;;;;;18.48;8.75;;;5.00;99.90;;;;;;5017804;28;20055;-79
2023/03/07 00:22:16;;;;;;;16.45;8.90;;;5.00;99.90;;;;;;5018433;28;20049;-80
2023/03/07 00:24:42;;;;;;;16.02;8.88;;;5.00;99.90;;;;;;5015396;28;20125;-80
2023/03/07 00:27:09;;;;;;;15.05;8.73;;;5.00;99.90;;;;;;5016120;28;20060;-80
2023/03/07 00:29:36;;;;;;;13.90;8.43;;;5.00;99.90;;;;;;5015379;28;20520;-80
2023/03/07 00:32:02;;;;;;;16.75;9.00;;;5.00;99.90;;;;;;5016106;28;20477;-81
2023/03/07 00:34:29;;;;;;;15.30;8.85;;;4.90;99.90;;;;;;5017261;28;20042;-80
2023/03/07 00:36:56;;;;;;;16.67;9.20;;;5.00;99.90;;;;;;5011787;28;20520;-81
2023/03/07 00:39:23;;;;;;;15.32;9.13;;;4.90;99.90;;;;;;5018002;28;20050;-80
2023/03/07 00:41:49;;;;;;;16.02;8.98;;;5.00;99.90;;;;;;5013157;28;20054;-79
2023/03/07 00:44:16;;;;;;;19.27;8.90;;;5.00;99.90;;;;;;5017069;28;20046;-79
2023/03/07 00:46:43;;;;;;;15.15;8.40;;;5.00;99.90;;;;;;5014403;28;20105;-80
2023/03/07 00:49:09;;;;;;;15.43;8.82;;;5.00;99.90;;;;;;5023621;28;20096;-79
2023/03/07 00:51:36;;;;;;;16.80;9.30;;;5.00;99.90;;;;;;5019238;28;20049;-79
2023/03/07 00:54:02;;;;;;;16.88;9.85;;;5.00;99.90;;;;;;5030804;28;20051;-80
2023/03/07 00:56:29;;;;;;;12.52;8.25;;;5.00;99.90;;;;;;5014150;28;20417;-80
2023/03/07 00:58:56;;;;;;;15.38;8.60;;;5.10;99.90;;;;;;5017951;28;20053;-80
2023/03/07 01:01:24;;;;;;;13.98;8.48;;;5.10;99.90;;;;;;5027116;28;20391;-80
2023/03/07 01:03:55;;;;;;;14.27;8.63;;;5.10;99.90;;;;;;5026647;28;20497;-80
2023/03/07 01:06:28;;;;;;;17.05;9.07;;;5.10;99.90;;;;;;5015533;28;20100;-81
2023/03/07 01:08:57;;;;;;;17.33;9.48;;;5.10;99.90;;;;;;5011064;28;20445;-80
2023/03/07 01:11:24;;;;;;;16.25;9.05;;;5.10;99.90;;;;;;5015150;28;20052;-81
2023/03/07 01:13:53;;;;;;;15.13;8.73;;;5.10;99.90;;;;;;5008385;28;20050;-80
2023/03/07 01:16:22;;;;;;;19.35;9.70;;;5.10;99.90;;;;;;5019884;28;20418;-80
2023/03/07 01:18:54;;;;;;;18.63;10.10;;;5.10;99.90;;;;;;5016435;28;20473;-79
2023/03/07 01:21:23;;;;;;;19.23;9.85;;;5.20;99.90;;;;;;5019843;28;20046;-78
2023/03/07 01:23:50;;;;;;;14.70;8.93;;;5.10;99.90;;;;;;5016921;28;20500;-80
2023/03/07 01:26:26;;;;;;;16.17;8.93;;;5.10;99.90;;;;;;5019744;28;20050;-80
2023/03/07 01:28:55;;;;;;;15.30;8.68;;;5.10;99.90;;;;;;5019671;28;20052;-79
2023/03/07 01:31:22;;;;;;;16.48;9.00;;;5.10;99.90;;;;;;5023600;28;20050;-78
2023/03/07 01:33:51;;;;;;;17.08;9.88;;;5.20;99.90;;;;;;5012926;28;20077;-80
2023/03/07 01:36:24;;;;;;;18.67;9.65;;;5.10;99.90;;;;;;5013659;28;20042;-79
2023/03/07 01:38:54;;;;;;;16.25;9.60;;;5.10;99.90;;;;;;5018231;28;20125;-81
2023/03/07 01:41:21;;;;;;;17.80;9.90;;;5.10;99.90;;;;;;5017568;28;20053;-83
2023/03/07 01:43:48;;;;;;;22.95;10.23;;;5.20;99.90;;;;;;5013319;28;20421;-81
2023/03/07 01:46:17;;;;;;;17.05;9.93;;;5.20;99.90;;;;;;5020637;28;20673;-81
2023/03/07 01:49:08;;;;;;;16.92;9.57;;;5.10;99.90;;;;;;5013549;28;20074;-81
2023/03/07 01:51:37;;;;;;;17.98;9.30;;;5.20;99.90;;;;;;5007675;28;20073;-80
2023/03/07 01:54:06;;;;;;;19.42;9.90;;;5.10;99.90;;;;;;5016649;28;20057;-80
2023/03/07 01:56:36;;;;;;;18.23;9.60;;;5.00;99.90;;;;;;5016157;28;20045;-82
2023/03/07 01:59:04;;;;;;;20.75;9.88;;;5.10;99.90;;;;;;5017082;28;20048;-80
2023/03/07 02:01:32;;;;;;;14.52;8.30;;;5.10;99.90;;;;;;5019395;28;20046;-80
2023/03/07 02:04:08;;;;;;;16.48;9.90;;;5.10;99.90;;;;;;5021440;28;20045;-81
2023/03/07 02:06:37;;;;;;;17.02;9.95;;;5.10;99.90;;;;;;5017044;28;20068;-81
2023/03/07 02:09:11;;;;;;;19.20;9.38;;;5.10;99.90;;;;;;5021730;28;20053;-81
2023/03/07 02:11:43;;;;;;;15.02;8.95;;;5.10;99.90;;;;;;5017543;28;20663;-81
2023/03/07 02:14:09;;;;;;;15.63;9.02;;;5.00;99.90;;;;;;5014791;28;20038;-80
2023/03/07 02:16:37;;;;;;;19.10;9.30;;;5.10;99.90;;;;;;5011267;28;20428;-81
2023/03/07 02:19:13;;;;;;;18.38;10.23;;;5.00;99.90;;;;;;5031110;28;20045;-81
2023/03/07 02:22:02;;;;;;;17.60;9.43;;;5.00;99.90;;;;;;5016290;28;20056;-83
2023/03/07 02:24:44;;;;;;;14.68;9.15;;;4.90;99.90;;;;;;5030725;28;20041;-82
2023/03/07 02:27:11;;;;;;;17.33;9.18;;;4.90;99.90;;;;;;5018580;28;20056;-82
2023/03/07 02:29:39;;;;;;;15.07;9.02;;;4.90;99.90;;;;;;5034982;28;20597;-80
2023/03/07 02:32:07;;;;;;;15.38;9.65;;;4.90;99.90;;;;;;5018192;28;20112;-81
2023/03/07 02:34:34;;;;;;;15.32;9.00;;;4.90;99.90;;;;;;5023990;28;20050;-80
2023/03/07 02:37:12;;;;;;;14.90;9.05;;;4.90;99.90;;;;;;5018997;28;20501;-81
2023/03/07 02:39:41;;;;;;;14.40;9.35;;;4.90;99.90;;;;;;5018642;28;20046;-81
2023/03/07 02:42:13;;;;;;;17.63;9.32;;;4.90;99.90;;;;;;5014493;28;20565;-80
2023/03/07 02:44:42;;;;;;;14.93;8.60;;;4.90;99.90;;;;;;5020485;28;20042;-81
2023/03/07 02:47:09;;;;;;;16.80;9.10;;;4.90;99.90;;;;;;5017776;28;20053;-80
2023/03/07 02:49:36;;;;;;;17.00;9.50;;;4.90;99.90;;;;;;5020271;28;20129;-81
2023/03/07 02:52:03;;;;;;;14.57;8.43;;;4.90;99.90;;;;;;5025961;28;20415;-81
2023/03/07 02:54:29;;;;;;;17.70;9.25;;;5.00;99.90;;;;;;5020428;28;20077;-81
2023/03/07 02:56:56;;;;;;;13.75;8.73;;;4.90;99.90;;;;;;5020127;28;20039;-81
2023/03/07 02:59:23;;;;;;;17.20;9.25;;;4.90;99.90;;;;;;5016217;28;20042;-80
2023/03/07 03:01:49;;;;;;;16.77;9.52;;;5.00;99.90;;;;;;5026769;28;20702;-81
2023/03/07 03:04:16;;;;;;;15.07;9.10;;;4.90;99.90;;;;;;5025068;28;20042;-80
2023/03/07 03:06:43;;;;;;;18.40;8.90;;;4.90;99.90;;;;;;5018426;28;20042;-80
2023/03/07 03:09:10;;;;;;;12.77;8.40;;;4.90;99.90;;;;;;5016491;28;20038;-80
2023/03/07 03:11:37;;;;;;;16.20;8.82;;;4.90;99.90;;;;;;5012494;28;20041;-80
2023/03/07 03:14:03;;;;;;;15.60;8.43;;;4.90;99.90;;;;;;5016993;28;20414;-80
2023/03/07 03:16:30;;;;;;;18.30;9.38;;;4.90;99.90;;;;;;5013245;28;20068;-80
2023/03/07 03:18:57;;;;;;;14.13;8.38;;;4.90;99.90;;;;;;5019562;28;20085;-81
2023/03/07 03:21:23;;;;;;;15.98;8.68;;;4.90;99.90;;;;;;5014082;28;20056;-80
2023/03/07 03:23:50;;;;;;;12.65;8.07;;;4.90;99.90;;;;;;5018153;28;20513;-80
2023/03/07 03:26:17;;;;;;;15.05;7.82;;;4.90;99.90;;;;;;5020387;28;20084;-80
2023/03/07 03:28:44;;;;;;;14.55;8.35;;;4.90;99.90;;;;;;5020725;28;20052;-80
2023/03/07 03:31:13;;;;;;;17.23;8.48;;;4.80;99.90;;;;;;5016516;28;20068;-80
2023/03/07 03:33:42;;;;;;;12.93;7.78;;;4.90;99.90;;;;;;5024114;28;20056;-80
2023/03/07 03:36:13;;;;;;;13.90;8.00;;;4.80;99.90;;;;;;5035666;28;20045;-80
2023/03/07 03:38:40;;;;;;;14.20;8.13;;;4.90;99.90;;;;;;5016940;28;20073;-78
2023/03/07 03:41:10;;;;;;;13.88;7.88;;;4.80;99.90;;;;;;5029147;28;20056;-82
2023/03/07 03:43:37;;;;;;;14.75;8.15;;;4.80;99.90;;;;;;5014492;28;20065;-80
2023/03/07 03:46:04;;;;;;;14.95;7.70;;;4.80;99.90;;;;;;5022696;28;20049;-81
2023/03/07 03:48:30;;;;;;;12.43;7.47;;;4.90;99.90;;;;;;5041199;28;20041;-81
2023/03/07 03:51:06;;;;;;;15.05;7.93;;;4.90;99.90;;;;;;5023206;28;20512;-81
2023/03/07 03:53:34;;;;;;;13.63;7.95;;;4.90;99.90;;;;;;5015916;28;20049;-81
2023/03/07 03:56:12;;;;;;;15.90;8.00;;;4.90;99.90;;;;;;5015613;28;20049;-81
2023/03/07 03:58:39;;;;;;;14.57;7.90;;;4.90;99.90;;;;;;5017482;28;20038;-81
2023/03/07 04:01:09;;;;;;;12.02;7.30;;;4.90;99.90;;;;;;5017128;28;20049;-83
2023/03/07 04:03:41;;;;;;;12.07;7.93;;;4.90;99.90;;;;;;5010878;28;20045;-80
2023/03/07 04:06:14;;;;;;;12.98;7.53;;;4.90;99.90;;;;;;5015656;28;20042;-82
2023/03/07 04:08:41;;;;;;;12.38;8.13;;;4.90;99.90;;;;;;5017397;28;20406;-79
2023/03/07 04:11:08;;;;;;;12.07;7.07;;;4.90;99.90;;;;;;5018761;28;20052;-81
2023/03/07 04:13:35;;;;;;;13.23;7.95;;;4.90;99.90;;;;;;5020224;28;20038;-80
2023/03/07 04:16:03;;;;;;;12.98;7.63;;;4.90;99.90;;;;;;5017726;28;20048;-80
2023/03/07 04:18:30;;;;;;;11.38;7.05;;;4.90;99.90;;;;;;5020656;28;20042;-81
2023/03/07 04:20:57;;;;;;;14.73;7.72;;;4.90;99.90;;;;;;5013047;28;20506;-81
2023/03/07 04:23:24;;;;;;;12.57;7.50;;;4.90;99.90;;;;;;5012230;28;20520;-80
2023/03/07 04:25:56;;;;;;;11.18;6.85;;;4.90;99.90;;;;;;5018002;28;20516;-80
2023/03/07 04:28:43;;;;;;;15.70;8.02;;;4.90;99.90;;;;;;5018514;28;20448;-80
2023/03/07 04:31:21;;;;;;;14.60;8.10;;;4.90;99.90;;;;;;5019999;28;20133;-80
2023/03/07 04:33:49;;;;;;;10.35;6.80;;;4.90;99.90;;;;;;5014907;28;20053;-78
2023/03/07 04:36:17;;;;;;;12.40;7.53;;;4.90;99.90;;;;;;5015577;28;20046;-80
2023/03/07 04:38:45;;;;;;;12.23;7.40;;;4.90;99.90;;;;;;5017569;28;20053;-81
2023/03/07 04:41:17;;;;;;;11.85;7.82;;;5.00;99.90;;;;;;5013702;28;20568;-80
2023/03/07 04:43:44;;;;;;;13.88;7.78;;;5.00;99.90;;;;;;5030691;28;20552;-82
2023/03/07 04:46:12;;;;;;;11.73;7.10;;;5.00;99.90;;;;;;5017363;28;20069;-81
2023/03/07 04:48:39;;;;;;;14.20;7.60;;;5.00;99.90;;;;;;5021206;28;20056;-84
2023/03/07 04:51:06;;;;;;;13.30;7.40;;;5.00;99.90;;;;;;5017151;28;20049;-82
2023/03/07 04:53:33;;;;;;;15.68;7.57;;;5.00;99.90;;;;;;5020096;28;20050;-80
2023/03/07 04:56:02;;;;;;;12.00;6.72;;;5.00;99.90;;;;;;5019860;28;20054;-81
2023/03/07 04:58:29;;;;;;;14.25;7.40;;;5.00;99.90;;;;;;5026956;28;20120;-81
2023/03/07 05:00:56;;;;;;;12.68;7.75;;;5.00;99.90;;;;;;5018531;28;20060;-80
2023/03/07 05:03:25;;;;;;;13.10;7.07;;;5.00;99.90;;;;;;5021301;28;20085;-82
2023/03/07 05:05:52;;;;;;;15.52;8.15;;;5.00;99.90;;;;;;5022608;28;20049;-82
2023/03/07 05:08:19;;;;;;;12.48;7.07;;;5.00;99.90;;;;;;5037200;28;20045;-83
2023/03/07 05:10:46;;;;;;;12.32;7.35;;;5.00;99.90;;;;;;5025820;28;20049;-80
2023/03/07 05:13:13;;;;;;;16.30;7.38;;;5.00;99.90;;;;;;5017415;28;20053;-82
2023/03/07 05:15:39;;;;;;;10.07;6.80;;;5.00;99.90;;;;;;5024709;28;20041;-81
2023/03/07 05:18:06;;;;;;;11.95;7.65;;;5.00;99.90;;;;;;5018392;28;20120;-80
2023/03/07 05:20:33;;;;;;;11.75;7.00;;;5.00;99.90;;;;;;5014946;28;20052;-80
2023/03/07 05:23:00;;;;;;;13.55;7.03;;;5.00;99.90;;;;;;5016542;28;20046;-81
2023/03/07 05:25:27;;;;;;;13.13;7.35;;;5.00;99.90;;;;;;5015686;28;20525;-80
2023/03/07 05:27:54;;;;;;;10.23;6.43;;;4.90;99.90;;;;;;5011079;28;20065;-81
2023/03/07 05:30:21;;;;;;;12.27;6.95;;;5.00;99.90;;;;;;5015650;28;20038;-80
2023/03/07 05:32:47;;;;;;;12.60;7.35;;;5.00;99.90;;;;;;5016401;28;20707;-79
2023/03/07 05:35:15;;;;;;;11.88;7.50;;;5.00;99.90;;;;;;5017431;28;20038;-81
2023/03/07 05:37:41;;;;;;;9.82;6.78;;;5.00;99.90;;;;;;5012977;28;20119;-82
2023/03/07 05:40:09;;;;;;;11.20;6.85;;;5.00;99.90;;;;;;5013119;28;20050;-81
2023/03/07 05:42:36;;;;;;;11.95;7.03;;;5.00;99.90;;;;;;5022602;28;20049;-82
2023/03/07 05:45:04;;;;;;;14.35;7.00;;;5.00;99.90;;;;;;5014534;28;20051;-81
2023/03/07 05:47:31;;;;;;;12.88;7.22;;;5.10;99.90;;;;;;5026667;28;20092;-81
2023/03/07 05:49:58;;;;;;;11.38;6.82;;;5.10;99.90;;;;;;5017146;28;20045;-80
2023/03/07 05:52:25;;;;;;;11.75;6.93;;;5.10;99.90;;;;;;5026886;28;20061;-81
2023/03/07 05:54:52;;;;;;;12.38;6.97;;;5.00;99.90;;;;;;5018238;28;20085;-80
2023/03/07 05:57:19;;;;;;;11.13;6.90;;;5.00;99.90;;;;;;5016522;28;20050;-81
2023/03/07 05:59:46;;;;;;;11.85;7.10;;;5.00;99.90;;;;;;5015429;28;20417;-80
2023/03/07 06:02:13;;;;;;;12.52;7.20;;;5.00;99.90;;;;;;5022528;28;20052;-81
2023/03/07 06:04:40;;;;;;;14.43;8.73;;;5.00;99.90;;;;;;5017836;28;20498;-80
2023/03/07 06:07:07;;;;;;;13.77;7.60;;;5.10;99.90;;;;;;5017930;28;20449;-80
2023/03/07 06:09:33;;;;;;;11.85;6.57;;;5.10;99.90;;;;;;5019506;28;20046;-81
2023/03/07 06:12:00;;;;;;;11.05;6.22;;;5.00;99.90;;;;;;5022417;28;20053;-81
2023/03/07 06:14:26;;;;;;;12.32;6.68;;;5.00;99.90;;;;;;5022809;28;20409;-80
2023/03/07 06:16:53;;;;;;;8.90;5.95;;;5.10;99.90;;;;;;5013361;28;20445;-84
2023/03/07 06:19:20;;;;;;;12.73;7.78;;;5.10;99.90;;;;;;5020218;28;20041;-81
2023/03/07 06:21:46;;;;;;;10.75;6.88;;;5.10;99.90;;;;;;5012707;28;20054;-80
2023/03/07 06:24:13;;;;;;;10.23;6.55;;;5.10;99.90;;;;;;5023022;28;20046;-80
2023/03/07 06:26:40;;;;;;;12.48;6.82;;;5.10;99.90;;;;;;5016804;28;20560;-82
2023/03/07 06:29:06;;;;;;;12.25;6.90;;;5.20;99.90;;;;;;5018095;28;20050;-81
2023/03/07 06:31:33;;;;;;;11.77;7.10;;;5.10;99.90;;;;;;5011909;28;20045;-81
2023/03/07 06:34:00;;;;;;;12.43;7.25;;;5.10;99.90;;;;;;5011703;28;20494;-81
2023/03/07 06:36:26;;;;;;;15.70;7.53;;;5.20;99.90;;;;;;5017686;28;20053;-82
2023/03/07 06:38:53;;;;;;;14.77;8.65;;;5.20;99.90;;;;;;5017697;28;20048;-81
2023/03/07 06:41:20;;;;;;;13.68;7.90;;;5.20;99.90;;;;;;5017758;28;20046;-80
2023/03/07 06:43:51;;;;;;;12.82;7.05;;;5.20;99.90;;;;;;5029800;28;20049;-82
2023/03/07 06:46:19;;;;;;;11.43;6.90;;;5.20;99.90;;;;;;5016194;28;20037;-80
2023/03/07 06:48:46;;;;;;;11.00;7.28;;;5.20;99.90;;;;;;5017954;28;20137;-80
2023/03/07 06:51:12;;;;;;;11.90;6.40;;;5.20;99.90;;;;;;5013418;28;20132;-80
2023/03/07 06:53:40;;;;;;;12.57;6.43;;;5.20;99.90;;;;;;5018908;28;20038;-82
2023/03/07 06:56:06;;;;;;;10.15;6.35;;;5.20;99.90;;;;;;5014132;28;20042;-80
2023/03/07 06:58:33;;;;;;;8.18;6.30;;;5.20;99.90;;;;;;5014935;28;20076;-82
2023/03/07 07:01:00;;;;;;;9.57;6.15;;;5.20;99.90;;;;;;5019276;28;20137;-80
2023/03/07 07:03:26;;;;;;;8.50;5.85;;;5.20;99.90;;;;;;5012907;28;20506;-80
2023/03/07 07:05:53;;;;;;;10.07;6.10;;;5.30;99.90;;;;;;5021050;28;20051;-78
2023/03/07 07:08:20;;;;;;;9.75;5.78;;;5.30;99.90;;;;;;5023833;28;20099;-81
2023/03/07 07:10:46;;;;;;;11.02;6.35;;;5.20;99.90;;;;;;5021923;28;20050;-79
2023/03/07 07:13:13;;;;;;;14.05;6.78;;;5.30;99.90;;;;;;5023455;28;20049;-80
2023/03/07 07:15:40;;;;;;;10.50;6.10;;;5.30;99.90;;;;;;5022722;28;20041;-81
2023/03/07 07:18:09;;;;;;;12.02;6.47;;;5.40;99.90;;;;;;5023868;28;20053;-81
2023/03/07 07:20:37;;;;;;;12.15;6.05;;;5.40;99.90;;;;;;5018100;28;20095;-81
2023/03/07 07:23:03;;;;;;;12.50;6.63;;;5.40;99.90;;;;;;5013442;28;20056;-80
2023/03/07 07:25:30;;;;;;;13.38;6.85;;;5.50;99.90;;;;;;5013943;28;20061;-82
2023/03/07 07:27:57;;;;;;;13.98;7.03;;;5.50;99.90;;;;;;5015412;28;20052;-80
2023/03/07 07:30:23;;;;;;;15.55;7.32;;;5.60;99.90;;;;;;5014980;28;20060;-81
2023/03/07 07:32:50;;;;;;;16.65;7.28;;;5.60;99.90;;;;;;5022609;28;20445;-82
2023/03/07 07:35:17;;;;;;;8.35;5.43;;;5.70;99.90;;;;;;5017877;28;20453;-80
2023/03/07 07:37:44;;;;;;;10.27;6.07;;;5.70;99.90;;;;;;5018554;28;20416;-80
2023/03/07 07:40:11;;;;;;;12.77;6.85;;;5.80;99.90;;;;;;5021054;28;20104;-80
2023/03/07 07:42:38;;;;;;;15.25;6.50;;;5.80;99.90;;;;;;5018681;28;20041;-81
2023/03/07 07:45:05;;;;;;;10.10;5.43;;;5.90;99.90;;;;;;5013605;28;20084;-80
2023/03/07 07:47:32;;;;;;;12.82;6.85;;;5.90;99.90;;;;;;5016612;28;20138;-81
2023/03/07 07:49:58;;;;;;;12.15;6.55;;;6.00;99.90;;;;;;5024981;28;20058;-83
2023/03/07 07:52:25;;;;;;;10.82;6.72;;;6.00;99.90;;;;;;5036254;28;20121;-83
2023/03/07 07:54:52;;;;;;;13.05;6.57;;;6.10;99.90;;;;;;5037253;28;20132;-82
2023/03/07 07:57:18;;;;;;;15.32;7.13;;;6.10;99.90;;;;;;5031602;28;20022;-80
2023/03/07 07:59:48;;;;;;;10.63;7.00;;;6.20;99.90;;;;;;5042391;28;20081;-81
2023/03/07 08:02:14;;;;;;;13.13;7.15;;;6.20;99.90;;;;;;5028670;28;20058;-80
2023/03/07 08:04:41;;;;;;;12.05;6.65;;;6.30;99.90;;;;;;5009454;28;20042;-79
2023/03/07 08:07:08;;;;;;;17.70;7.97;;;6.30;99.90;;;;;;5012964;28;20049;-80
2023/03/07 08:09:35;;;;;;;17.17;8.30;;;6.40;99.90;;;;;;5006806;28;20052;-80
2023/03/07 08:12:01;;;;;;;11.93;6.90;;;6.40;99.90;;;;;;5013563;28;20129;-80
2023/03/07 08:14:28;;;;;;;11.02;6.70;;;6.40;99.90;;;;;;5012753;28;20042;-81
2023/03/07 08:16:55;;;;;;;11.77;7.38;;;6.40;99.90;;;;;;5018171;28;20042;-80
2023/03/07 08:19:21;;;;;;;14.27;8.55;;;6.50;99.90;;;;;;5020267;28;20044;-80
2023/03/07 08:21:48;;;;;;;17.02;8.52;;;6.50;99.90;;;;;;5018802;28;20052;-80
2023/03/07 08:24:15;;;;;;;12.73;7.32;;;6.50;99.90;;;;;;5011325;28;20130;-81
2023/03/07 08:26:41;;;;;;;13.65;7.63;;;6.50;99.90;;;;;;5017289;28;20052;-80
2023/03/07 08:29:08;;;;;;;12.40;7.22;;;6.50;99.90;;;;;;5016299;28;20045;-80
2023/03/07 08:31:35;;;;;;;13.70;7.47;;;6.50;99.90;;;;;;5016882;28;20497;-80
2023/03/07 08:34:01;;;;;;;13.63;8.50;;;6.60;99.90;;;;;;5014037;28;20053;-80
2023/03/07 08:36:28;;;;;;;16.58;8.63;;;6.60;99.90;;;;;;5007345;28;20071;-80
2023/03/07 08:38:55;;;;;;;12.48;7.65;;;6.60;99.90;;;;;;5014110;28;20077;-80
2023/03/07 08:41:22;;;;;;;12.75;7.53;;;6.60;99.90;;;;;;5013587;28;20041;-79
2023/03/07 08:43:49;;;;;;;12.98;8.68;;;6.70;99.90;;;;;;5013766;28;20060;-80
2023/03/07 08:46:15;;;;;;;16.40;7.53;;;6.70;99.90;;;;;;5014683;28;20041;-82
2023/03/07 08:48:42;;;;;;;14.43;7.72;;;6.70;99.90;;;;;;5029210;28;21342;-80
2023/03/07 08:51:13;;;;;;;14.07;8.68;;;6.70;99.90;;;;;;5008161;28;20056;-80
2023/03/07 08:53:42;;;;;;;14.00;7.45;;;6.80;99.90;;;;;;5011622;28;20069;-80
2023/03/07 08:56:10;;;;;;;11.63;7.63;;;6.80;99.90;;;;;;5007312;28;20099;-80
2023/03/07 08:58:37;;;;;;;14.70;7.82;;;6.80;99.90;;;;;;5027263;28;20037;-80
2023/03/07 09:01:05;;;;;;;15.48;8.10;;;6.90;99.90;;;;;;5007357;28;20510;-81
2023/03/07 09:03:33;;;;;;;12.02;7.38;;;6.90;99.90;;;;;;5014911;28;20460;-80
2023/03/07 09:06:00;;;;;;;13.00;8.15;;;7.00;99.90;;;;;;5012189;28;20985;-78
2023/03/07 09:08:27;;;;;;;13.35;7.93;;;7.00;99.90;;;;;;5010309;28;20050;-80
2023/03/07 09:10:54;;;;;;;13.32;8.73;;;7.00;99.90;;;;;;5008787;28;20054;-82
2023/03/07 09:13:21;;;;;;;11.95;8.00;;;7.00;99.90;;;;;;5010152;28;20049;-80
2023/03/07 09:15:48;;;;;;;15.52;8.20;;;7.00;99.90;;;;;;5012795;28;20506;-81
2023/03/07 09:18:14;;;;;;;15.75;8.15;;;7.10;99.90;;;;;;5008269;28;20760;-79
2023/03/07 09:20:41;;;;;;;13.52;8.50;;;7.10;99.90;;;;;;5012489;28;20046;-81
2023/03/07 09:23:07;;;;;;;15.68;8.98;;;7.20;99.90;;;;;;5010651;28;20057;-80
2023/03/07 09:25:35;;;;;;;13.45;8.30;;;7.10;99.90;;;;;;5016843;28;20048;-80
2023/03/07 09:28:03;;;;;;;13.35;8.32;;;7.10;99.90;;;;;;5018024;28;20042;-79
2023/03/07 09:30:30;;;;;;;13.73;7.65;;;7.10;99.90;;;;;;5017624;28;20057;-80
2023/03/07 09:32:56;;;;;;;13.13;8.60;;;7.10;99.90;;;;;;5007590;28;20110;-80
2023/03/07 09:35:23;;;;;;;13.80;8.07;;;7.20;99.90;;;;;;5015594;28;20046;-79
2023/03/07 09:37:50;;;;;;;15.85;8.90;;;7.20;99.90;;;;;;5013532;28;20042;-80
2023/03/07 09:40:23;;;;;;;12.35;8.40;;;7.20;99.90;;;;;;5011564;28;20042;-79
2023/03/07 09:43:09;;;;;;;15.27;8.75;;;7.20;99.90;;;;;;5017200;28;20129;-81
2023/03/07 09:46:00;;;;;;;16.85;9.00;;;7.20;99.90;;;;;;5016420;28;20056;-80
2023/03/07 09:48:53;;;;;;;14.77;8.00;;;7.30;99.90;;;;;;5006155;28;20050;-82
2023/03/07 09:51:36;;;;;;;13.77;7.85;;;7.30;99.90;;;;;;5020399;28;20100;-83
2023/03/07 09:54:23;;;;;;;13.23;8.98;;;7.40;99.90;;;;;;5015410;28;20101;-80
2023/03/07 09:57:01;;;;;;;15.27;8.73;;;7.40;99.90;;;;;;5019178;28;20042;-80
2023/03/07 09:59:47;;;;;;;13.80;8.35;;;7.40;99.90;;;;;;5018357;28;20046;-79
2023/03/07 10:02:22;;;;;;;13.80;8.48;;;7.50;99.90;;;;;;5011188;28;20410;-80
2023/03/07 10:04:51;;;;;;;12.15;7.70;;;7.60;99.90;;;;;;5011994;28;20046;-81
2023/03/07 10:07:23;;;;;;;13.77;8.63;;;7.60;99.90;;;;;;5010791;28;20056;-79
2023/03/07 10:10:03;;;;;;;16.30;9.40;;;7.70;99.90;;;;;;5013204;28;20056;-80
2023/03/07 10:13:04;;;;;;;14.68;8.57;;;7.70;99.90;;;;;;5020095;28;20046;-79
2023/03/07 10:15:56;;;;;;;13.50;7.20;;;7.70;99.90;;;;;;5010752;28;20126;-80
2023/03/07 10:18:34;;;;;;;11.43;7.43;;;7.60;99.90;;;;;;5008607;28;20062;-82
2023/03/07 10:21:26;;;;;;;16.67;8.27;;;7.50;99.90;;;;;;5029299;28;20078;-81
2023/03/07 10:24:02;;;;;;;12.40;7.75;;;7.50;99.90;;;;;;5018773;28;20072;-81
2023/03/07 10:26:34;;;;;;;12.73;7.57;;;7.50;99.90;;;;;;5012416;28;20490;-79
2023/03/07 10:29:13;;;;;;;13.35;7.30;;;7.50;99.90;;;;;;5019429;28;20421;-79
2023/03/07 10:31:45;;;;;;;13.80;7.45;;;7.40;99.90;;;;;;5012283;28;20050;-80
2023/03/07 10:34:22;;;;;;;14.07;7.38;;;7.40;99.90;;;;;;5019115;28;20107;-81
2023/03/07 10:37:00;;;;;;;12.00;7.10;;;7.40;99.90;;;;;;5017658;28;20508;-78
2023/03/07 10:39:53;;;;;;;13.02;7.20;;;7.50;99.90;;;;;;5020350;28;20041;-80
2023/03/07 10:42:33;;;;;;;12.27;6.28;;;7.50;99.90;;;;;;5018212;28;20053;-78
2023/03/07 10:45:01;;;;;;;12.40;7.53;;;7.50;99.90;;;;;;5026248;28;20061;-80
2023/03/07 10:47:28;;;;;;;14.23;6.80;;;7.50;99.90;;;;;;5017355;28;20121;-80
2023/03/07 10:50:16;;;;;;;13.90;7.47;;;7.40;99.90;;;;;;5024204;28;20136;-79
2023/03/07 10:52:49;;;;;;;13.52;7.28;;;7.40;99.90;;;;;;5012644;28;20520;-77
2023/03/07 10:55:57;;;;;;;11.50;7.15;;;7.40;99.90;;;;;;5033129;28;20049;-79
2023/03/07 10:58:25;;;;;;;12.63;7.20;;;7.50;99.90;;;;;;5011637;28;20125;-81
2023/03/07 11:01:07;;;;;;;13.75;7.47;;;7.60;99.90;;;;;;5012150;28;20066;-80
2023/03/07 11:03:37;;;;;;;12.15;7.82;;;7.60;99.90;;;;;;5012241;28;20053;-80
2023/03/07 11:06:30;;;;;;;20.25;7.63;;;7.70;99.90;;;;;;5014044;28;20046;-81
2023/03/07 11:09:06;;;;;;;14.35;6.90;;;7.60;99.90;;;;;;5012777;28;20083;-78
2023/03/07 11:11:35;;;;;;;15.13;7.35;;;7.60;99.90;;;;;;5013742;28;20129;-80
2023/03/07 11:14:10;;;;;;;11.73;7.50;;;7.60;99.90;;;;;;5014783;28;20059;-80
2023/03/07 11:16:50;;;;;;;11.88;7.53;;;7.60;99.90;;;;;;5007972;28;20509;-79
2023/03/07 11:19:41;;;;;;;11.73;7.32;;;7.70;99.90;;;;;;5009545;28;20042;-79
2023/03/07 11:22:17;;;;;;;11.95;7.32;;;7.70;99.90;;;;;;5027451;28;20076;-79
2023/03/07 11:24:51;;;;;;;11.85;7.55;;;7.70;99.90;;;;;;5011022;28;20062;-81
2023/03/07 11:27:35;;;;;;;12.85;7.25;;;7.60;99.90;;;;;;5012872;28;20042;-80
2023/03/07 11:30:06;;;;;;;13.48;7.78;;;7.60;99.90;;;;;;5013898;28;20081;-80
2023/03/07 11:32:38;;;;;;;12.43;6.82;;;7.60;99.90;;;;;;5013688;28;20041;-79
2023/03/07 11:35:34;;;;;;;13.13;7.63;;;7.50;99.90;;;;;;5011871;28;20050;-78
2023/03/07 11:38:12;;;;;;;18.42;8.02;;;7.40;99.90;;;;;;5008551;28;20517;-80
2023/03/07 11:40:49;;;;;;;11.10;6.55;;;7.40;99.90;;;;;;5007064;28;20049;-80
2023/03/07 11:43:34;;;;;;;11.70;7.50;;;7.40;99.90;;;;;;5010266;28;20053;-79
2023/03/07 11:46:13;;;;;;;13.43;7.78;;;7.40;99.90;;;;;;5010845;28;20457;-79
2023/03/07 11:49:08;;;;;;;13.05;7.35;;;7.50;99.90;;;;;;5009458;28;20046;-77
2023/03/07 11:51:53;;;;;;;14.52;7.97;;;7.50;99.90;;;;;;5011068;28;20054;-80
2023/03/07 11:54:46;;;;;;;14.73;8.13;;;7.60;99.90;;;;;;5011558;28;20054;-79
2023/03/07 11:57:43;;;;;;;12.95;7.43;;;7.60;99.90;;;;;;5012893;28;20142;-80
2023/03/07 12:00:16;;;;;;;14.60;7.43;;;7.70;99.90;;;;;;5006755;28;20569;-80
2023/03/07 12:02:46;;;;;;;12.85;7.32;;;7.70;99.90;;;;;;5016582;28;20510;-81
2023/03/07 12:05:34;;;;;;;15.30;8.10;;;7.70;99.90;;;;;;5011832;28;20506;-80
2023/03/07 12:08:22;;;;;;;13.07;7.72;;;7.70;99.90;;;;;;5009428;28;20046;-83
2023/03/07 12:11:12;;;;;;;11.68;6.82;;;7.80;99.90;;;;;;5012399;28;20056;-81
2023/03/07 12:14:05;;;;;;;14.60;8.15;;;7.70;99.90;;;;;;5014829;28;20565;-79
2023/03/07 12:17:04;;;;;;;11.80;7.03;;;7.80;99.90;;;;;;5009579;28;20589;-80
2023/03/07 12:19:41;;;;;;;13.40;7.35;;;8.00;99.90;;;;;;5012030;28;20050;-79
2023/03/07 12:22:26;;;;;;;13.15;7.90;;;8.00;99.90;;;;;;5007490;28;20481;-79
2023/03/07 12:25:03;;;;;;;12.38;7.45;;;8.00;99.90;;;;;;5008488;28;20042;-80
2023/03/07 12:27:39;;;;;;;11.38;6.82;;;8.00;99.90;;;;;;5006534;28;20046;-80
2023/03/07 12:30:25;;;;;;;12.55;7.15;;;8.00;99.90;;;;;;5011358;28;20064;-80
2023/03/07 12:32:53;;;;;;;12.65;7.50;;;8.00;99.90;;;;;;5007637;28;20552;-82
2023/03/07 12:35:22;;;;;;;14.00;7.57;;;8.10;99.90;;;;;;5007072;28;20046;-80
2023/03/07 12:38:08;;;;;;;11.38;7.63;;;8.10;99.90;;;;;;5007901;28;20436;-80
2023/03/07 12:40:50;;;;;;;11.70;7.63;;;8.10;99.90;;;;;;5013473;28;20046;-81
2023/03/07 12:43:28;;;;;;;12.23;7.38;;;8.00;99.90;;;;;;5017543;28;20046;-82
2023/03/07 12:46:00;;;;;;;12.48;6.43;;;8.10;99.90;;;;;;5017224;28;20060;-79
2023/03/07 12:48:32;;;;;;;13.70;7.45;;;8.10;99.90;;;;;;5014845;28;20050;-80
2023/03/07 12:51:08;;;;;;;14.45;7.00;;;8.10;99.90;;;;;;5009437;28;20061;-81
2023/03/07 12:53:40;;;;;;;12.77;7.35;;;8.10;99.90;;;;;;5009303;28;20045;-79
2023/03/07 12:56:10;;;;;;;16.00;7.63;;;8.10;99.90;;;;;;5009337;28;20073;-79
2023/03/07 12:59:01;;;;;;;10.60;6.72;;;8.10;99.90;;;;;;5010651;28;20050;-80
2023/03/07 13:01:39;;;;;;;13.38;6.90;;;8.10;99.90;;;;;;5012554;28;20469;-81
2023/03/07 13:04:41;;;;;;;14.70;7.20;;;8.10;99.90;;;;;;5012206;28;20072;-78
2023/03/07 13:07:17;;;;;;;13.52;7.88;;;8.00;99.90;;;;;;5028557;28;20054;-81